sensor_id;sensor_type;location;lat;lon;timestamp;P1;durP1;ratioP1;P2;durP2;ratioP2
18320;SDS011;54904;54.350;18.664;2023-03-01T00:00:39;4.07;;;2.67;;
18320;SDS011;54904;54.350;18.664;2023-03-01T00:03:06;5.33;;;3.10;;
18320;SDS011;54904;54.350;18.664;2023-03-01T00:05:34;7.03;;;3.00;;
18320;SDS011;54904;54.350;18.664;2023-03-01T00:08:03;5.43;;;3.13;;
18320;SDS011;54904;54.350;18.664;2023-03-01T00:10:30;3.47;;;2.43;;
18320;SDS011;54904;54.350;18.664;2023-03-01T00:12:57;3.43;;;2.40;;
18320;SDS011;54904;54.350;18.664;2023-03-01T00:15:24;6.13;;;3.10;;
18320;SDS011;54904;54.350;18.664;2023-03-01T00:17:53;7.00;;;3.40;;
18320;SDS011;54904;54.350;18.664;2023-03-01T00:20:20;7.83;;;3.33;;
18320;SDS011;54904;54.350;18.664;2023-03-01T00:22:47;4.60;;;2.80;;
18320;SDS011;54904;54.350;18.664;2023-03-01T00:25:14;4.20;;;2.70;;
18320;SDS011;54904;54.350;18.664;2023-03-01T00:27:41;5.73;;;2.80;;
18320;SDS011;54904;54.350;18.664;2023-03-01T00:30:11;9.40;;;3.50;;
18320;SDS011;54904;54.350;18.664;2023-03-01T00:32:38;4.00;;;2.77;;
18320;SDS011;54904;54.350;18.664;2023-03-01T00:35:07;5.40;;;2.93;;
18320;SDS011;54904;54.350;18.664;2023-03-01T00:37:34;6.23;;;3.30;;
18320;SDS011;54904;54.350;18.664;2023-03-01T00:40:02;6.03;;;3.30;;
18320;SDS011;54904;54.350;18.664;2023-03-01T00:42:31;7.77;;;2.90;;
18320;SDS011;54904;54.350;18.664;2023-03-01T00:44:58;6.20;;;3.10;;
18320;SDS011;54904;54.350;18.664;2023-03-01T00:47:28;7.20;;;3.20;;
18320;SDS011;54904;54.350;18.664;2023-03-01T00:49:55;5.10;;;2.97;;
18320;SDS011;54904;54.350;18.664;2023-03-01T00:52:24;4.47;;;3.27;;
18320;SDS011;54904;54.350;18.664;2023-03-01T00:54:51;6.07;;;3.13;;
18320;SDS011;54904;54.350;18.664;2023-03-01T00:57:19;9.13;;;3.23;;
18320;SDS011;54904;54.350;18.664;2023-03-01T00:59:46;4.97;;;2.63;;
18320;SDS011;54904;54.350;18.664;2023-03-01T01:02:13;4.17;;;3.03;;
18320;SDS011;54904;54.350;18.664;2023-03-01T01:04:40;6.93;;;3.57;;
18320;SDS011;54904;54.350;18.664;2023-03-01T01:07:07;5.13;;;3.13;;
18320;SDS011;54904;54.350;18.664;2023-03-01T01:09:36;4.30;;;3.00;;
18320;SDS011;54904;54.350;18.664;2023-03-01T01:12:03;3.93;;;3.00;;
18320;SDS011;54904;54.350;18.664;2023-03-01T01:14:31;4.93;;;3.20;;
18320;SDS011;54904;54.350;18.664;2023-03-01T01:16:58;4.57;;;2.93;;
18320;SDS011;54904;54.350;18.664;2023-03-01T01:19:27;5.77;;;3.60;;
18320;SDS011;54904;54.350;18.664;2023-03-01T01:21:54;7.43;;;3.50;;
18320;SDS011;54904;54.350;18.664;2023-03-01T01:24:22;6.20;;;3.20;;
18320;SDS011;54904;54.350;18.664;2023-03-01T01:26:50;7.00;;;3.13;;
18320;SDS011;54904;54.350;18.664;2023-03-01T01:29:17;6.60;;;3.87;;
18320;SDS011;54904;54.350;18.664;2023-03-01T01:31:45;5.77;;;2.83;;
18320;SDS011;54904;54.350;18.664;2023-03-01T01:34:13;7.43;;;3.50;;
18320;SDS011;54904;54.350;18.664;2023-03-01T01:36:42;4.03;;;2.80;;
18320;SDS011;54904;54.350;18.664;2023-03-01T01:39:09;4.50;;;2.53;;
18320;SDS011;54904;54.350;18.664;2023-03-01T01:41:38;5.57;;;2.90;;
18320;SDS011;54904;54.350;18.664;2023-03-01T01:44:14;5.30;;;3.03;;
18320;SDS011;54904;54.350;18.664;2023-03-01T01:46:44;4.57;;;2.67;;
18320;SDS011;54904;54.350;18.664;2023-03-01T01:49:24;4.43;;;3.00;;
18320;SDS011;54904;54.350;18.664;2023-03-01T01:51:56;4.57;;;2.90;;
18320;SDS011;54904;54.350;18.664;2023-03-01T01:54:29;5.53;;;3.00;;
18320;SDS011;54904;54.350;18.664;2023-03-01T01:57:06;2.70;;;2.50;;
18320;SDS011;54904;54.350;18.664;2023-03-01T01:59:40;4.90;;;2.87;;
18320;SDS011;54904;54.350;18.664;2023-03-01T02:02:11;5.63;;;3.43;;
18320;SDS011;54904;54.350;18.664;2023-03-01T02:04:39;7.53;;;3.70;;
18320;SDS011;54904;54.350;18.664;2023-03-01T02:07:09;3.93;;;3.13;;
18320;SDS011;54904;54.350;18.664;2023-03-01T02:09:41;4.90;;;2.97;;
18320;SDS011;54904;54.350;18.664;2023-03-01T02:12:11;5.30;;;3.20;;
18320;SDS011;54904;54.350;18.664;2023-03-01T02:14:41;5.87;;;3.10;;
18320;SDS011;54904;54.350;18.664;2023-03-01T02:17:09;5.03;;;3.27;;
18320;SDS011;54904;54.350;18.664;2023-03-01T02:19:43;4.97;;;3.77;;
18320;SDS011;54904;54.350;18.664;2023-03-01T02:22:20;4.07;;;3.13;;
18320;SDS011;54904;54.350;18.664;2023-03-01T02:24:54;4.90;;;3.50;;
18320;SDS011;54904;54.350;18.664;2023-03-01T02:27:32;5.30;;;3.43;;
18320;SDS011;54904;54.350;18.664;2023-03-01T02:30:06;8.53;;;4.13;;
18320;SDS011;54904;54.350;18.664;2023-03-01T02:32:38;3.93;;;2.67;;
18320;SDS011;54904;54.350;18.664;2023-03-01T02:35:08;3.80;;;2.90;;
18320;SDS011;54904;54.350;18.664;2023-03-01T02:37:36;7.97;;;3.97;;
18320;SDS011;54904;54.350;18.664;2023-03-01T02:40:06;8.90;;;4.67;;
18320;SDS011;54904;54.350;18.664;2023-03-01T02:42:39;7.80;;;4.63;;
18320;SDS011;54904;54.350;18.664;2023-03-01T02:45:23;7.33;;;4.60;;
18320;SDS011;54904;54.350;18.664;2023-03-01T02:47:53;9.67;;;4.90;;
18320;SDS011;54904;54.350;18.664;2023-03-01T02:50:26;7.33;;;4.40;;
18320;SDS011;54904;54.350;18.664;2023-03-01T02:53:12;7.67;;;4.50;;
18320;SDS011;54904;54.350;18.664;2023-03-01T02:55:46;9.83;;;5.07;;
18320;SDS011;54904;54.350;18.664;2023-03-01T02:58:13;9.93;;;5.10;;
18320;SDS011;54904;54.350;18.664;2023-03-01T03:00:42;12.17;;;5.67;;
18320;SDS011;54904;54.350;18.664;2023-03-01T03:03:12;11.70;;;5.23;;
18320;SDS011;54904;54.350;18.664;2023-03-01T03:05:40;11.70;;;5.47;;
18320;SDS011;54904;54.350;18.664;2023-03-01T03:08:07;10.83;;;4.63;;
18320;SDS011;54904;54.350;18.664;2023-03-01T03:10:37;7.63;;;4.70;;
18320;SDS011;54904;54.350;18.664;2023-03-01T03:13:07;8.67;;;5.00;;
18320;SDS011;54904;54.350;18.664;2023-03-01T03:15:36;11.77;;;4.97;;
18320;SDS011;54904;54.350;18.664;2023-03-01T03:18:06;8.57;;;5.30;;
18320;SDS011;54904;54.350;18.664;2023-03-01T03:20:36;10.13;;;5.67;;
18320;SDS011;54904;54.350;18.664;2023-03-01T03:23:08;12.10;;;6.10;;
18320;SDS011;54904;54.350;18.664;2023-03-01T03:25:41;11.07;;;6.43;;
18320;SDS011;54904;54.350;18.664;2023-03-01T03:28:11;10.63;;;5.93;;
18320;SDS011;54904;54.350;18.664;2023-03-01T03:30:38;10.67;;;6.30;;
18320;SDS011;54904;54.350;18.664;2023-03-01T03:33:09;9.53;;;5.30;;
18320;SDS011;54904;54.350;18.664;2023-03-01T03:35:40;12.10;;;6.00;;
18320;SDS011;54904;54.350;18.664;2023-03-01T03:38:09;11.97;;;6.57;;
18320;SDS011;54904;54.350;18.664;2023-03-01T03:40:42;9.87;;;5.90;;
18320;SDS011;54904;54.350;18.664;2023-03-01T03:43:12;10.30;;;5.60;;
18320;SDS011;54904;54.350;18.664;2023-03-01T03:45:40;8.43;;;5.43;;
18320;SDS011;54904;54.350;18.664;2023-03-01T03:48:11;9.17;;;5.67;;
18320;SDS011;54904;54.350;18.664;2023-03-01T03:50:38;11.37;;;6.50;;
18320;SDS011;54904;54.350;18.664;2023-03-01T03:53:07;9.13;;;5.53;;
18320;SDS011;54904;54.350;18.664;2023-03-01T03:55:38;9.73;;;5.50;;
18320;SDS011;54904;54.350;18.664;2023-03-01T03:58:06;12.07;;;5.93;;
18320;SDS011;54904;54.350;18.664;2023-03-01T04:00:35;8.97;;;5.73;;
18320;SDS011;54904;54.350;18.664;2023-03-01T04:03:04;10.53;;;5.53;;
18320;SDS011;54904;54.350;18.664;2023-03-01T04:05:32;10.90;;;5.40;;
18320;SDS011;54904;54.350;18.664;2023-03-01T04:08:00;11.87;;;6.03;;
18320;SDS011;54904;54.350;18.664;2023-03-01T04:10:27;10.90;;;6.20;;
18320;SDS011;54904;54.350;18.664;2023-03-01T04:12:56;9.27;;;5.13;;
18320;SDS011;54904;54.350;18.664;2023-03-01T04:15:24;11.10;;;6.27;;
18320;SDS011;54904;54.350;18.664;2023-03-01T04:17:53;13.43;;;6.83;;
18320;SDS011;54904;54.350;18.664;2023-03-01T04:20:21;9.43;;;5.40;;
18320;SDS011;54904;54.350;18.664;2023-03-01T04:22:52;10.00;;;6.00;;
18320;SDS011;54904;54.350;18.664;2023-03-01T04:25:26;12.80;;;5.63;;
18320;SDS011;54904;54.350;18.664;2023-03-01T04:27:53;14.53;;;6.70;;
18320;SDS011;54904;54.350;18.664;2023-03-01T04:30:20;12.47;;;5.93;;
18320;SDS011;54904;54.350;18.664;2023-03-01T04:32:50;9.90;;;5.60;;
18320;SDS011;54904;54.350;18.664;2023-03-01T04:35:17;10.00;;;5.93;;
18320;SDS011;54904;54.350;18.664;2023-03-01T04:37:45;10.90;;;6.40;;
18320;SDS011;54904;54.350;18.664;2023-03-01T04:40:14;6.53;;;4.13;;
18320;SDS011;54904;54.350;18.664;2023-03-01T04:42:42;11.73;;;5.50;;
18320;SDS011;54904;54.350;18.664;2023-03-01T04:45:09;13.83;;;6.63;;
18320;SDS011;54904;54.350;18.664;2023-03-01T04:47:39;12.33;;;6.80;;
18320;SDS011;54904;54.350;18.664;2023-03-01T04:50:08;15.00;;;7.77;;
18320;SDS011;54904;54.350;18.664;2023-03-01T04:52:36;8.83;;;5.40;;
18320;SDS011;54904;54.350;18.664;2023-03-01T04:55:04;10.57;;;5.50;;
18320;SDS011;54904;54.350;18.664;2023-03-01T04:57:33;8.27;;;4.73;;
18320;SDS011;54904;54.350;18.664;2023-03-01T05:00:01;9.40;;;5.27;;
18320;SDS011;54904;54.350;18.664;2023-03-01T05:02:45;10.63;;;5.97;;
18320;SDS011;54904;54.350;18.664;2023-03-01T05:05:19;6.40;;;4.13;;
18320;SDS011;54904;54.350;18.664;2023-03-01T05:07:52;5.87;;;4.20;;
18320;SDS011;54904;54.350;18.664;2023-03-01T05:10:20;11.53;;;6.17;;
18320;SDS011;54904;54.350;18.664;2023-03-01T05:12:49;10.77;;;5.80;;
18320;SDS011;54904;54.350;18.664;2023-03-01T05:15:19;6.93;;;4.80;;
18320;SDS011;54904;54.350;18.664;2023-03-01T05:17:48;7.80;;;4.33;;
18320;SDS011;54904;54.350;18.664;2023-03-01T05:20:15;8.77;;;5.10;;
18320;SDS011;54904;54.350;18.664;2023-03-01T05:22:43;8.30;;;5.30;;
18320;SDS011;54904;54.350;18.664;2023-03-01T05:25:10;7.40;;;5.17;;
18320;SDS011;54904;54.350;18.664;2023-03-01T05:27:39;9.77;;;5.60;;
18320;SDS011;54904;54.350;18.664;2023-03-01T05:30:08;11.23;;;6.10;;
18320;SDS011;54904;54.350;18.664;2023-03-01T05:32:40;10.83;;;6.23;;
18320;SDS011;54904;54.350;18.664;2023-03-01T05:35:11;10.73;;;6.50;;
18320;SDS011;54904;54.350;18.664;2023-03-01T05:37:40;10.30;;;5.60;;
18320;SDS011;54904;54.350;18.664;2023-03-01T05:40:09;7.83;;;4.97;;
18320;SDS011;54904;54.350;18.664;2023-03-01T05:42:44;6.97;;;4.13;;
18320;SDS011;54904;54.350;18.664;2023-03-01T05:45:13;5.33;;;3.63;;
18320;SDS011;54904;54.350;18.664;2023-03-01T05:47:41;6.53;;;4.43;;
18320;SDS011;54904;54.350;18.664;2023-03-01T05:50:13;9.20;;;5.33;;
18320;SDS011;54904;54.350;18.664;2023-03-01T05:52:44;10.47;;;5.57;;
18320;SDS011;54904;54.350;18.664;2023-03-01T05:55:14;9.40;;;5.33;;
18320;SDS011;54904;54.350;18.664;2023-03-01T05:57:42;9.33;;;5.73;;
18320;SDS011;54904;54.350;18.664;2023-03-01T06:00:19;10.77;;;6.00;;
18320;SDS011;54904;54.350;18.664;2023-03-01T06:02:50;11.60;;;6.00;;
18320;SDS011;54904;54.350;18.664;2023-03-01T06:05:24;8.87;;;5.17;;
18320;SDS011;54904;54.350;18.664;2023-03-01T06:07:52;10.00;;;5.17;;
18320;SDS011;54904;54.350;18.664;2023-03-01T06:10:19;5.23;;;3.77;;
18320;SDS011;54904;54.350;18.664;2023-03-01T06:12:48;6.23;;;4.10;;
18320;SDS011;54904;54.350;18.664;2023-03-01T06:15:16;6.90;;;4.00;;
18320;SDS011;54904;54.350;18.664;2023-03-01T06:17:48;5.37;;;3.90;;
18320;SDS011;54904;54.350;18.664;2023-03-01T06:20:17;4.83;;;3.33;;
18320;SDS011;54904;54.350;18.664;2023-03-01T06:22:46;5.63;;;4.20;;
18320;SDS011;54904;54.350;18.664;2023-03-01T06:25:15;10.10;;;6.20;;
18320;SDS011;54904;54.350;18.664;2023-03-01T06:27:48;7.87;;;5.17;;
18320;SDS011;54904;54.350;18.664;2023-03-01T06:30:19;11.57;;;5.93;;
18320;SDS011;54904;54.350;18.664;2023-03-01T06:32:47;8.63;;;5.83;;
18320;SDS011;54904;54.350;18.664;2023-03-01T06:35:15;13.63;;;6.97;;
18320;SDS011;54904;54.350;18.664;2023-03-01T06:37:44;12.17;;;7.07;;
18320;SDS011;54904;54.350;18.664;2023-03-01T06:40:16;13.57;;;7.67;;
18320;SDS011;54904;54.350;18.664;2023-03-01T06:42:47;11.77;;;6.30;;
18320;SDS011;54904;54.350;18.664;2023-03-01T06:45:16;11.27;;;6.13;;
18320;SDS011;54904;54.350;18.664;2023-03-01T06:47:46;8.43;;;5.10;;
18320;SDS011;54904;54.350;18.664;2023-03-01T06:50:14;8.57;;;5.07;;
18320;SDS011;54904;54.350;18.664;2023-03-01T06:52:42;6.57;;;4.23;;
18320;SDS011;54904;54.350;18.664;2023-03-01T06:55:10;6.93;;;4.17;;
18320;SDS011;54904;54.350;18.664;2023-03-01T06:57:37;6.40;;;4.13;;
18320;SDS011;54904;54.350;18.664;2023-03-01T07:00:05;6.17;;;4.00;;
18320;SDS011;54904;54.350;18.664;2023-03-01T07:02:34;4.80;;;3.40;;
18320;SDS011;54904;54.350;18.664;2023-03-01T07:05:01;5.10;;;3.50;;
18320;SDS011;54904;54.350;18.664;2023-03-01T07:07:29;4.87;;;3.63;;
18320;SDS011;54904;54.350;18.664;2023-03-01T07:09:56;8.17;;;4.97;;
18320;SDS011;54904;54.350;18.664;2023-03-01T07:12:23;16.53;;;7.37;;
18320;SDS011;54904;54.350;18.664;2023-03-01T07:14:51;10.83;;;5.97;;
18320;SDS011;54904;54.350;18.664;2023-03-01T07:17:18;8.53;;;4.90;;
18320;SDS011;54904;54.350;18.664;2023-03-01T07:19:47;6.90;;;4.63;;
18320;SDS011;54904;54.350;18.664;2023-03-01T07:22:14;6.70;;;4.60;;
18320;SDS011;54904;54.350;18.664;2023-03-01T07:24:44;6.33;;;4.33;;
18320;SDS011;54904;54.350;18.664;2023-03-01T07:27:11;10.07;;;5.27;;
18320;SDS011;54904;54.350;18.664;2023-03-01T07:29:42;7.93;;;4.70;;
18320;SDS011;54904;54.350;18.664;2023-03-01T07:32:09;5.17;;;3.53;;
18320;SDS011;54904;54.350;18.664;2023-03-01T07:34:37;7.20;;;4.17;;
18320;SDS011;54904;54.350;18.664;2023-03-01T07:37:05;6.23;;;3.87;;
18320;SDS011;54904;54.350;18.664;2023-03-01T07:39:32;8.77;;;4.70;;
18320;SDS011;54904;54.350;18.664;2023-03-01T07:41:59;6.53;;;4.37;;
18320;SDS011;54904;54.350;18.664;2023-03-01T07:44:28;5.67;;;3.90;;
18320;SDS011;54904;54.350;18.664;2023-03-01T07:46:55;4.67;;;3.20;;
18320;SDS011;54904;54.350;18.664;2023-03-01T07:49:23;5.23;;;3.50;;
18320;SDS011;54904;54.350;18.664;2023-03-01T07:51:51;4.43;;;3.37;;
18320;SDS011;54904;54.350;18.664;2023-03-01T07:54:20;7.93;;;4.33;;
18320;SDS011;54904;54.350;18.664;2023-03-01T07:56:49;4.40;;;3.13;;
18320;SDS011;54904;54.350;18.664;2023-03-01T07:59:20;5.93;;;3.90;;
18320;SDS011;54904;54.350;18.664;2023-03-01T08:01:48;4.77;;;3.30;;
18320;SDS011;54904;54.350;18.664;2023-03-01T08:04:16;5.37;;;3.67;;
18320;SDS011;54904;54.350;18.664;2023-03-01T08:06:43;4.70;;;3.30;;
18320;SDS011;54904;54.350;18.664;2023-03-01T08:09:10;8.47;;;4.80;;
18320;SDS011;54904;54.350;18.664;2023-03-01T08:11:39;7.63;;;4.77;;
18320;SDS011;54904;54.350;18.664;2023-03-01T08:14:06;6.93;;;4.47;;
18320;SDS011;54904;54.350;18.664;2023-03-01T08:16:36;7.77;;;4.37;;
18320;SDS011;54904;54.350;18.664;2023-03-01T08:19:04;9.27;;;4.53;;
18320;SDS011;54904;54.350;18.664;2023-03-01T08:21:33;6.30;;;4.50;;
18320;SDS011;54904;54.350;18.664;2023-03-01T08:24:02;7.13;;;4.50;;
18320;SDS011;54904;54.350;18.664;2023-03-01T08:26:31;7.17;;;4.60;;
18320;SDS011;54904;54.350;18.664;2023-03-01T08:29:00;8.30;;;4.50;;
18320;SDS011;54904;54.350;18.664;2023-03-01T08:31:28;8.87;;;4.93;;
18320;SDS011;54904;54.350;18.664;2023-03-01T08:33:59;8.73;;;4.90;;
18320;SDS011;54904;54.350;18.664;2023-03-01T08:36:28;7.47;;;4.43;;
18320;SDS011;54904;54.350;18.664;2023-03-01T08:39:04;5.43;;;3.63;;
18320;SDS011;54904;54.350;18.664;2023-03-01T08:41:31;8.00;;;4.27;;
18320;SDS011;54904;54.350;18.664;2023-03-01T08:44:00;9.50;;;4.27;;
18320;SDS011;54904;54.350;18.664;2023-03-01T08:46:31;7.20;;;4.40;;
18320;SDS011;54904;54.350;18.664;2023-03-01T08:48:59;7.03;;;4.07;;
18320;SDS011;54904;54.350;18.664;2023-03-01T08:51:29;9.87;;;5.20;;
18320;SDS011;54904;54.350;18.664;2023-03-01T08:54:01;8.40;;;5.00;;
18320;SDS011;54904;54.350;18.664;2023-03-01T08:56:31;9.47;;;4.80;;
18320;SDS011;54904;54.350;18.664;2023-03-01T08:58:58;11.30;;;4.53;;
18320;SDS011;54904;54.350;18.664;2023-03-01T09:01:29;7.50;;;4.67;;
18320;SDS011;54904;54.350;18.664;2023-03-01T09:03:57;12.90;;;5.23;;
18320;SDS011;54904;54.350;18.664;2023-03-01T09:06:24;7.60;;;4.60;;
18320;SDS011;54904;54.350;18.664;2023-03-01T09:08:51;7.40;;;4.30;;
18320;SDS011;54904;54.350;18.664;2023-03-01T09:11:20;6.30;;;4.27;;
18320;SDS011;54904;54.350;18.664;2023-03-01T09:13:48;6.73;;;4.60;;
18320;SDS011;54904;54.350;18.664;2023-03-01T09:16:16;5.87;;;4.10;;
18320;SDS011;54904;54.350;18.664;2023-03-01T09:18:49;6.87;;;4.27;;
18320;SDS011;54904;54.350;18.664;2023-03-01T09:21:18;7.57;;;4.67;;
18320;SDS011;54904;54.350;18.664;2023-03-01T09:23:46;6.50;;;4.50;;
18320;SDS011;54904;54.350;18.664;2023-03-01T09:26:15;7.23;;;4.17;;
18320;SDS011;54904;54.350;18.664;2023-03-01T09:28:44;6.57;;;4.60;;
18320;SDS011;54904;54.350;18.664;2023-03-01T09:31:12;7.90;;;4.70;;
18320;SDS011;54904;54.350;18.664;2023-03-01T09:33:45;5.30;;;4.23;;
18320;SDS011;54904;54.350;18.664;2023-03-01T09:36:16;6.77;;;4.50;;
18320;SDS011;54904;54.350;18.664;2023-03-01T09:38:45;5.67;;;4.03;;
18320;SDS011;54904;54.350;18.664;2023-03-01T09:41:28;5.73;;;3.93;;
18320;SDS011;54904;54.350;18.664;2023-03-01T09:44:10;6.00;;;4.20;;
18320;SDS011;54904;54.350;18.664;2023-03-01T09:46:46;5.30;;;4.47;;
18320;SDS011;54904;54.350;18.664;2023-03-01T09:49:14;5.90;;;4.30;;
18320;SDS011;54904;54.350;18.664;2023-03-01T09:51:47;5.47;;;3.90;;
18320;SDS011;54904;54.350;18.664;2023-03-01T09:54:21;7.57;;;4.67;;
18320;SDS011;54904;54.350;18.664;2023-03-01T09:56:53;8.63;;;5.03;;
18320;SDS011;54904;54.350;18.664;2023-03-01T09:59:33;7.10;;;4.13;;
18320;SDS011;54904;54.350;18.664;2023-03-01T10:02:25;8.37;;;4.67;;
18320;SDS011;54904;54.350;18.664;2023-03-01T10:04:58;8.27;;;4.20;;
18320;SDS011;54904;54.350;18.664;2023-03-01T10:07:36;9.00;;;4.40;;
18320;SDS011;54904;54.350;18.664;2023-03-01T10:10:20;6.23;;;3.57;;
18320;SDS011;54904;54.350;18.664;2023-03-01T10:12:52;4.33;;;3.53;;
18320;SDS011;54904;54.350;18.664;2023-03-01T10:15:25;3.53;;;3.07;;
18320;SDS011;54904;54.350;18.664;2023-03-01T10:18:02;4.53;;;3.80;;
18320;SDS011;54904;54.350;18.664;2023-03-01T10:20:33;3.60;;;3.20;;
18320;SDS011;54904;54.350;18.664;2023-03-01T10:23:10;4.80;;;3.20;;
18320;SDS011;54904;54.350;18.664;2023-03-01T10:25:49;5.87;;;3.50;;
18320;SDS011;54904;54.350;18.664;2023-03-01T10:28:28;4.93;;;3.53;;
18320;SDS011;54904;54.350;18.664;2023-03-01T10:31:00;5.33;;;3.17;;
18320;SDS011;54904;54.350;18.664;2023-03-01T10:33:28;5.45;;;3.70;;
18320;SDS011;54904;54.350;18.664;2023-03-01T10:35:59;5.22;;;3.70;;
18320;SDS011;54904;54.350;18.664;2023-03-01T10:38:27;4.55;;;4.10;;
18320;SDS011;54904;54.350;18.664;2023-03-01T10:40:59;5.18;;;3.60;;
18320;SDS011;54904;54.350;18.664;2023-03-01T10:43:32;4.10;;;3.60;;
18320;SDS011;54904;54.350;18.664;2023-03-01T10:46:21;4.03;;;3.63;;
18320;SDS011;54904;54.350;18.664;2023-03-01T10:49:00;5.00;;;3.72;;
18320;SDS011;54904;54.350;18.664;2023-03-01T10:51:33;5.78;;;3.90;;
18320;SDS011;54904;54.350;18.664;2023-03-01T10:54:01;4.32;;;3.92;;
18320;SDS011;54904;54.350;18.664;2023-03-01T10:56:44;3.33;;;3.03;;
18320;SDS011;54904;54.350;18.664;2023-03-01T10:59:19;4.28;;;3.88;;
18320;SDS011;54904;54.350;18.664;2023-03-01T11:02:03;5.22;;;3.63;;
18320;SDS011;54904;54.350;18.664;2023-03-01T11:04:47;6.10;;;3.45;;
18320;SDS011;54904;54.350;18.664;2023-03-01T11:07:23;5.25;;;3.70;;
18320;SDS011;54904;54.350;18.664;2023-03-01T11:09:55;4.20;;;3.50;;
18320;SDS011;54904;54.350;18.664;2023-03-01T11:12:22;5.95;;;4.10;;
18320;SDS011;54904;54.350;18.664;2023-03-01T11:14:52;4.35;;;3.92;;
18320;SDS011;54904;54.350;18.664;2023-03-01T11:17:21;3.95;;;3.20;;
18320;SDS011;54904;54.350;18.664;2023-03-01T11:20:01;4.72;;;3.70;;
18320;SDS011;54904;54.350;18.664;2023-03-01T11:22:32;4.35;;;3.60;;
18320;SDS011;54904;54.350;18.664;2023-03-01T11:25:07;5.47;;;3.80;;
18320;SDS011;54904;54.350;18.664;2023-03-01T11:27:43;3.42;;;3.13;;
18320;SDS011;54904;54.350;18.664;2023-03-01T11:30:15;4.65;;;3.90;;
18320;SDS011;54904;54.350;18.664;2023-03-01T11:32:50;6.45;;;3.72;;
18320;SDS011;54904;54.350;18.664;2023-03-01T11:35:29;3.63;;;3.25;;
18320;SDS011;54904;54.350;18.664;2023-03-01T11:38:07;3.67;;;3.38;;
18320;SDS011;54904;54.350;18.664;2023-03-01T11:40:46;3.95;;;3.40;;
18320;SDS011;54904;54.350;18.664;2023-03-01T11:43:19;5.38;;;3.67;;
18320;SDS011;54904;54.350;18.664;2023-03-01T11:49:02;5.32;;;4.35;;
18320;SDS011;54904;54.350;18.664;2023-03-01T11:51:50;7.55;;;5.47;;
18320;SDS011;54904;54.350;18.664;2023-03-01T11:54:27;5.53;;;4.55;;
18320;SDS011;54904;54.350;18.664;2023-03-01T11:57:07;5.47;;;4.20;;
18320;SDS011;54904;54.350;18.664;2023-03-01T12:02:57;7.35;;;4.90;;
18320;SDS011;54904;54.350;18.664;2023-03-01T12:06:11;4.20;;;3.80;;
18320;SDS011;54904;54.350;18.664;2023-03-01T12:08:59;6.07;;;4.82;;
18320;SDS011;54904;54.350;18.664;2023-03-01T12:11:39;8.95;;;5.82;;
18320;SDS011;54904;54.350;18.664;2023-03-01T12:14:23;7.00;;;4.97;;
18320;SDS011;54904;54.350;18.664;2023-03-01T12:20:12;10.90;;;5.35;;
18320;SDS011;54904;54.350;18.664;2023-03-01T12:22:50;5.75;;;4.38;;
18320;SDS011;54904;54.350;18.664;2023-03-01T12:25:31;6.80;;;4.28;;
18320;SDS011;54904;54.350;18.664;2023-03-01T12:28:27;5.28;;;3.92;;
18320;SDS011;54904;54.350;18.664;2023-03-01T12:31:16;5.00;;;4.22;;
18320;SDS011;54904;54.350;18.664;2023-03-01T12:34:12;6.15;;;4.30;;
18320;SDS011;54904;54.350;18.664;2023-03-01T12:36:53;3.78;;;3.38;;
18320;SDS011;54904;54.350;18.664;2023-03-01T12:39:44;6.35;;;4.47;;
18320;SDS011;54904;54.350;18.664;2023-03-01T12:42:23;4.22;;;3.83;;
18320;SDS011;54904;54.350;18.664;2023-03-01T12:45:03;5.03;;;3.72;;
18320;SDS011;54904;54.350;18.664;2023-03-01T12:47:49;4.80;;;4.30;;
18320;SDS011;54904;54.350;18.664;2023-03-01T12:50:28;5.53;;;4.05;;
18320;SDS011;54904;54.350;18.664;2023-03-01T12:53:04;4.10;;;3.70;;
18320;SDS011;54904;54.350;18.664;2023-03-01T12:55:32;4.65;;;3.85;;
18320;SDS011;54904;54.350;18.664;2023-03-01T12:58:05;4.05;;;3.63;;
18320;SDS011;54904;54.350;18.664;2023-03-01T13:00:44;4.10;;;3.72;;
18320;SDS011;54904;54.350;18.664;2023-03-01T13:03:25;5.07;;;3.47;;
18320;SDS011;54904;54.350;18.664;2023-03-01T13:06:04;5.03;;;4.45;;
18320;SDS011;54904;54.350;18.664;2023-03-01T13:08:38;3.78;;;3.25;;
18320;SDS011;54904;54.350;18.664;2023-03-01T13:11:14;3.75;;;3.45;;
18320;SDS011;54904;54.350;18.664;2023-03-01T13:13:43;4.85;;;3.85;;
18320;SDS011;54904;54.350;18.664;2023-03-01T13:16:22;5.47;;;3.92;;
18320;SDS011;54904;54.350;18.664;2023-03-01T13:19:08;4.40;;;3.47;;
18320;SDS011;54904;54.350;18.664;2023-03-01T13:21:40;4.22;;;3.47;;
18320;SDS011;54904;54.350;18.664;2023-03-01T13:29:44;4.43;;;3.63;;
18320;SDS011;54904;54.350;18.664;2023-03-01T13:32:19;3.70;;;3.40;;
18320;SDS011;54904;54.350;18.664;2023-03-01T13:34:56;4.32;;;3.92;;
18320;SDS011;54904;54.350;18.664;2023-03-01T13:37:33;6.70;;;3.75;;
18320;SDS011;54904;54.350;18.664;2023-03-01T13:43:27;3.45;;;3.15;;
18320;SDS011;54904;54.350;18.664;2023-03-01T13:45:57;3.55;;;3.25;;
18320;SDS011;54904;54.350;18.664;2023-03-01T13:48:26;6.70;;;4.32;;
18320;SDS011;54904;54.350;18.664;2023-03-01T13:50:57;7.10;;;3.58;;
18320;SDS011;54904;54.350;18.664;2023-03-01T13:53:28;4.82;;;3.83;;
18320;SDS011;54904;54.350;18.664;2023-03-01T13:55:58;3.72;;;3.42;;
18320;SDS011;54904;54.350;18.664;2023-03-01T13:58:29;4.97;;;3.95;;
18320;SDS011;54904;54.350;18.664;2023-03-01T14:00:59;5.43;;;3.88;;
18320;SDS011;54904;54.350;18.664;2023-03-01T14:03:28;4.88;;;3.60;;
18320;SDS011;54904;54.350;18.664;2023-03-01T14:05:59;4.30;;;3.90;;
18320;SDS011;54904;54.350;18.664;2023-03-01T14:08:32;5.50;;;3.72;;
18320;SDS011;54904;54.350;18.664;2023-03-01T14:11:08;5.53;;;4.63;;
18320;SDS011;54904;54.350;18.664;2023-03-01T14:17:09;7.83;;;4.03;;
18320;SDS011;54904;54.350;18.664;2023-03-01T14:19:56;7.03;;;4.77;;
18320;SDS011;54904;54.350;18.664;2023-03-01T14:22:32;6.80;;;3.83;;
18320;SDS011;54904;54.350;18.664;2023-03-01T14:25:01;5.80;;;4.30;;
18320;SDS011;54904;54.350;18.664;2023-03-01T14:27:33;7.10;;;4.07;;
18320;SDS011;54904;54.350;18.664;2023-03-01T14:30:10;5.87;;;4.13;;
18320;SDS011;54904;54.350;18.664;2023-03-01T14:32:48;8.60;;;4.97;;
18320;SDS011;54904;54.350;18.664;2023-03-01T14:35:20;8.03;;;5.20;;
18320;SDS011;54904;54.350;18.664;2023-03-01T14:37:51;5.77;;;4.63;;
18320;SDS011;54904;54.350;18.664;2023-03-01T14:40:22;7.73;;;5.43;;
18320;SDS011;54904;54.350;18.664;2023-03-01T14:42:55;7.77;;;4.80;;
18320;SDS011;54904;54.350;18.664;2023-03-01T14:45:26;12.07;;;6.47;;
18320;SDS011;54904;54.350;18.664;2023-03-01T14:47:55;7.40;;;5.37;;
18320;SDS011;54904;54.350;18.664;2023-03-01T14:50:27;8.37;;;5.53;;
18320;SDS011;54904;54.350;18.664;2023-03-01T14:52:57;10.40;;;6.87;;
18320;SDS011;54904;54.350;18.664;2023-03-01T14:55:27;11.83;;;7.53;;
18320;SDS011;54904;54.350;18.664;2023-03-01T14:57:57;11.63;;;6.60;;
18320;SDS011;54904;54.350;18.664;2023-03-01T15:00:25;8.70;;;6.17;;
18320;SDS011;54904;54.350;18.664;2023-03-01T15:02:55;10.37;;;6.17;;
18320;SDS011;54904;54.350;18.664;2023-03-01T15:05:25;9.77;;;6.10;;
18320;SDS011;54904;54.350;18.664;2023-03-01T15:07:58;12.77;;;6.13;;
18320;SDS011;54904;54.350;18.664;2023-03-01T15:10:28;8.40;;;5.07;;
18320;SDS011;54904;54.350;18.664;2023-03-01T15:13:09;10.87;;;6.00;;
18320;SDS011;54904;54.350;18.664;2023-03-01T15:15:40;10.50;;;6.10;;
18320;SDS011;54904;54.350;18.664;2023-03-01T15:18:14;9.17;;;5.33;;
18320;SDS011;54904;54.350;18.664;2023-03-01T15:20:44;9.97;;;6.07;;